sensor_id;sensor_type;location;lat;lon;timestamp;temperature;humidity
53776;DHT22;44276;49.534;6.378;2023-03-01T00:02:05;-1.10;58.10
53776;DHT22;44276;49.534;6.378;2023-03-01T00:04:33;-1.10;57.20
53776;DHT22;44276;49.534;6.378;2023-03-01T00:07:02;-1.10;56.30
53776;DHT22;44276;49.534;6.378;2023-03-01T00:09:30;-1.10;56.40
53776;DHT22;44276;49.534;6.378;2023-03-01T00:11:59;-1.20;56.20
53776;DHT22;44276;49.534;6.378;2023-03-01T00:14:27;-1.20;56.80
53776;DHT22;44276;49.534;6.378;2023-03-01T00:16:56;-1.30;58.40
53776;DHT22;44276;49.534;6.378;2023-03-01T00:19:25;-1.40;60.40
53776;DHT22;44276;49.534;6.378;2023-03-01T00:21:53;-1.50;62.10
53776;DHT22;44276;49.534;6.378;2023-03-01T00:24:21;-1.60;63.10
53776;DHT22;44276;49.534;6.378;2023-03-01T00:26:52;-1.70;65.90
53776;DHT22;44276;49.534;6.378;2023-03-01T00:29:22;-1.70;67.90
53776;DHT22;44276;49.534;6.378;2023-03-01T00:31:51;-1.90;71.00
53776;DHT22;44276;49.534;6.378;2023-03-01T00:34:20;-1.80;71.30
53776;DHT22;44276;49.534;6.378;2023-03-01T00:36:48;-1.80;70.00
53776;DHT22;44276;49.534;6.378;2023-03-01T00:39:16;-1.70;68.80
53776;DHT22;44276;49.534;6.378;2023-03-01T00:41:45;-1.70;67.70
53776;DHT22;44276;49.534;6.378;2023-03-01T00:44:13;-1.70;67.60
53776;DHT22;44276;49.534;6.378;2023-03-01T00:46:41;-1.70;68.30
53776;DHT22;44276;49.534;6.378;2023-03-01T00:49:09;-1.60;66.10
53776;DHT22;44276;49.534;6.378;2023-03-01T00:51:39;-1.70;66.00
53776;DHT22;44276;49.534;6.378;2023-03-01T00:54:08;-1.80;67.50
53776;DHT22;44276;49.534;6.378;2023-03-01T00:56:37;-1.90;70.80
53776;DHT22;44276;49.534;6.378;2023-03-01T00:59:05;-2.00;74.20
53776;DHT22;44276;49.534;6.378;2023-03-01T01:01:33;-1.90;74.00
53776;DHT22;44276;49.534;6.378;2023-03-01T01:04:03;-1.80;71.70
53776;DHT22;44276;49.534;6.378;2023-03-01T01:06:34;-1.80;72.10
53776;DHT22;44276;49.534;6.378;2023-03-01T01:09:06;-1.90;73.50
53776;DHT22;44276;49.534;6.378;2023-03-01T01:11:35;-2.10;76.30
53776;DHT22;44276;49.534;6.378;2023-03-01T01:14:04;-2.20;82.30
53776;DHT22;44276;49.534;6.378;2023-03-01T01:16:32;-2.30;86.00
53776;DHT22;44276;49.534;6.378;2023-03-01T01:19:01;-2.30;89.70
53776;DHT22;44276;49.534;6.378;2023-03-01T01:21:30;-2.30;91.20
53776;DHT22;44276;49.534;6.378;2023-03-01T01:23:58;-2.30;90.50
53776;DHT22;44276;49.534;6.378;2023-03-01T01:26:30;-2.30;91.10
53776;DHT22;44276;49.534;6.378;2023-03-01T01:29:01;-2.20;90.80
53776;DHT22;44276;49.534;6.378;2023-03-01T01:31:32;-2.10;88.90
53776;DHT22;44276;49.534;6.378;2023-03-01T01:34:04;-2.10;87.20
53776;DHT22;44276;49.534;6.378;2023-03-01T01:36:34;-2.20;87.80
53776;DHT22;44276;49.534;6.378;2023-03-01T01:39:03;-2.20;90.20
53776;DHT22;44276;49.534;6.378;2023-03-01T01:41:33;-2.30;90.70
53776;DHT22;44276;49.534;6.378;2023-03-01T01:44:14;-2.40;93.80
53776;DHT22;44276;49.534;6.378;2023-03-01T01:46:47;-2.60;96.50
53776;DHT22;44276;49.534;6.378;2023-03-01T01:49:23;-2.70;99.90
53776;DHT22;44276;49.534;6.378;2023-03-01T01:52:07;-2.90;99.90
53776;DHT22;44276;49.534;6.378;2023-03-01T01:54:43;-2.90;99.90
53776;DHT22;44276;49.534;6.378;2023-03-01T01:57:19;-2.90;99.90
53776;DHT22;44276;49.534;6.378;2023-03-01T01:59:53;-3.10;99.90
53776;DHT22;44276;49.534;6.378;2023-03-01T02:02:26;-3.10;99.90
53776;DHT22;44276;49.534;6.378;2023-03-01T02:05:02;-3.00;99.90
53776;DHT22;44276;49.534;6.378;2023-03-01T02:07:38;-2.90;99.90
53776;DHT22;44276;49.534;6.378;2023-03-01T02:10:08;-2.70;99.90
53776;DHT22;44276;49.534;6.378;2023-03-01T02:12:39;-2.60;99.90
53776;DHT22;44276;49.534;6.378;2023-03-01T02:15:08;-2.40;99.90
53776;DHT22;44276;49.534;6.378;2023-03-01T02:17:37;-2.20;95.50
53776;DHT22;44276;49.534;6.378;2023-03-01T02:20:12;-2.10;91.70
53776;DHT22;44276;49.534;6.378;2023-03-01T02:22:47;-2.10;90.60
53776;DHT22;44276;49.534;6.378;2023-03-01T02:25:37;-2.10;91.20
53776;DHT22;44276;49.534;6.378;2023-03-01T02:28:23;-2.20;91.70
53776;DHT22;44276;49.534;6.378;2023-03-01T02:30:57;-2.20;91.60
53776;DHT22;44276;49.534;6.378;2023-03-01T02:33:44;-2.20;93.10
53776;DHT22;44276;49.534;6.378;2023-03-01T02:36:22;-2.30;95.00
53776;DHT22;44276;49.534;6.378;2023-03-01T02:38:58;-2.40;97.00
53776;DHT22;44276;49.534;6.378;2023-03-01T02:41:31;-2.50;99.10
53776;DHT22;44276;49.534;6.378;2023-03-01T02:44:05;-2.30;97.80
53776;DHT22;44276;49.534;6.378;2023-03-01T02:46:41;-2.40;96.20
53776;DHT22;44276;49.534;6.378;2023-03-01T02:49:23;-2.50;95.70
53776;DHT22;44276;49.534;6.378;2023-03-01T02:52:13;-2.80;99.40
53776;DHT22;44276;49.534;6.378;2023-03-01T02:54:52;-3.00;99.90
53776;DHT22;44276;49.534;6.378;2023-03-01T02:57:28;-3.10;99.90
53776;DHT22;44276;49.534;6.378;2023-03-01T03:00:03;-2.80;99.90
53776;DHT22;44276;49.534;6.378;2023-03-01T03:02:34;-2.70;99.90
53776;DHT22;44276;49.534;6.378;2023-03-01T03:05:06;-2.60;99.90
53776;DHT22;44276;49.534;6.378;2023-03-01T03:07:39;-2.60;99.90
53776;DHT22;44276;49.534;6.378;2023-03-01T03:10:10;-2.60;99.90
53776;DHT22;44276;49.534;6.378;2023-03-01T03:12:41;-2.60;99.90
53776;DHT22;44276;49.534;6.378;2023-03-01T03:15:11;-2.60;99.90
53776;DHT22;44276;49.534;6.378;2023-03-01T03:17:41;-2.60;99.90
53776;DHT22;44276;49.534;6.378;2023-03-01T03:20:14;-2.60;99.90
53776;DHT22;44276;49.534;6.378;2023-03-01T03:22:46;-2.60;99.90
53776;DHT22;44276;49.534;6.378;2023-03-01T03:25:16;-2.60;99.90
53776;DHT22;44276;49.534;6.378;2023-03-01T03:27:46;-2.50;99.90
53776;DHT22;44276;49.534;6.378;2023-03-01T03:30:19;-2.50;99.90
53776;DHT22;44276;49.534;6.378;2023-03-01T03:32:48;-2.50;99.90
53776;DHT22;44276;49.534;6.378;2023-03-01T03:35:21;-2.50;99.90
53776;DHT22;44276;49.534;6.378;2023-03-01T03:37:52;-2.40;99.90
53776;DHT22;44276;49.534;6.378;2023-03-01T03:40:31;-2.50;99.90
53776;DHT22;44276;49.534;6.378;2023-03-01T03:43:01;-2.40;99.90
53776;DHT22;44276;49.534;6.378;2023-03-01T03:45:31;-2.40;99.90
53776;DHT22;44276;49.534;6.378;2023-03-01T03:48:00;-2.40;99.90
53776;DHT22;44276;49.534;6.378;2023-03-01T03:50:29;-2.50;99.90
53776;DHT22;44276;49.534;6.378;2023-03-01T03:52:57;-2.60;99.90
53776;DHT22;44276;49.534;6.378;2023-03-01T03:55:28;-2.80;99.90
53776;DHT22;44276;49.534;6.378;2023-03-01T03:57:58;-3.00;99.90
53776;DHT22;44276;49.534;6.378;2023-03-01T04:00:30;-3.00;99.90
53776;DHT22;44276;49.534;6.378;2023-03-01T04:02:58;-3.00;99.90
53776;DHT22;44276;49.534;6.378;2023-03-01T04:05:27;-3.00;99.90
53776;DHT22;44276;49.534;6.378;2023-03-01T04:07:56;-3.10;99.90
53776;DHT22;44276;49.534;6.378;2023-03-01T04:10:35;-3.10;99.90
53776;DHT22;44276;49.534;6.378;2023-03-01T04:13:05;-3.10;99.90
53776;DHT22;44276;49.534;6.378;2023-03-01T04:15:36;-3.20;99.90
53776;DHT22;44276;49.534;6.378;2023-03-01T04:18:05;-3.00;99.90
53776;DHT22;44276;49.534;6.378;2023-03-01T04:20:35;-2.90;99.90
53776;DHT22;44276;49.534;6.378;2023-03-01T04:23:05;-3.00;99.90
53776;DHT22;44276;49.534;6.378;2023-03-01T04:25:46;-3.00;99.90
53776;DHT22;44276;49.534;6.378;2023-03-01T04:28:20;-3.00;99.90
53776;DHT22;44276;49.534;6.378;2023-03-01T04:30:53;-3.10;99.90
53776;DHT22;44276;49.534;6.378;2023-03-01T04:33:23;-3.20;99.90
53776;DHT22;44276;49.534;6.378;2023-03-01T04:35:53;-3.20;99.90
53776;DHT22;44276;49.534;6.378;2023-03-01T04:38:21;-3.20;99.90
53776;DHT22;44276;49.534;6.378;2023-03-01T04:40:49;-3.20;99.90
53776;DHT22;44276;49.534;6.378;2023-03-01T04:43:17;-3.00;99.90
53776;DHT22;44276;49.534;6.378;2023-03-01T04:45:45;-2.90;99.90
53776;DHT22;44276;49.534;6.378;2023-03-01T04:48:15;-2.80;99.90
53776;DHT22;44276;49.534;6.378;2023-03-01T04:50:43;-2.80;99.90
53776;DHT22;44276;49.534;6.378;2023-03-01T04:53:11;-2.80;99.90
53776;DHT22;44276;49.534;6.378;2023-03-01T04:55:39;-2.80;99.90
53776;DHT22;44276;49.534;6.378;2023-03-01T04:58:07;-2.90;99.90
53776;DHT22;44276;49.534;6.378;2023-03-01T05:00:35;-2.90;99.90
53776;DHT22;44276;49.534;6.378;2023-03-01T05:03:03;-2.90;99.90
53776;DHT22;44276;49.534;6.378;2023-03-01T05:05:35;-2.80;99.90
53776;DHT22;44276;49.534;6.378;2023-03-01T05:08:06;-2.80;99.90
53776;DHT22;44276;49.534;6.378;2023-03-01T05:10:45;-2.90;99.90
53776;DHT22;44276;49.534;6.378;2023-03-01T05:13:16;-2.90;99.90
53776;DHT22;44276;49.534;6.378;2023-03-01T05:15:48;-2.80;99.90
53776;DHT22;44276;49.534;6.378;2023-03-01T05:18:16;-2.80;99.90
53776;DHT22;44276;49.534;6.378;2023-03-01T05:20:46;-2.80;99.90
53776;DHT22;44276;49.534;6.378;2023-03-01T05:23:14;-2.80;99.90
53776;DHT22;44276;49.534;6.378;2023-03-01T05:25:43;-2.60;99.90
53776;DHT22;44276;49.534;6.378;2023-03-01T05:28:11;-2.50;99.90
53776;DHT22;44276;49.534;6.378;2023-03-01T05:30:40;-2.40;99.90
53776;DHT22;44276;49.534;6.378;2023-03-01T05:33:09;-2.40;99.90
53776;DHT22;44276;49.534;6.378;2023-03-01T05:35:40;-2.30;99.90
53776;DHT22;44276;49.534;6.378;2023-03-01T05:38:10;-2.30;99.90
53776;DHT22;44276;49.534;6.378;2023-03-01T05:40:41;-2.40;99.90
53776;DHT22;44276;49.534;6.378;2023-03-01T05:43:12;-2.40;99.90
53776;DHT22;44276;49.534;6.378;2023-03-01T05:45:42;-2.40;99.90
53776;DHT22;44276;49.534;6.378;2023-03-01T05:48:11;-2.20;99.90
53776;DHT22;44276;49.534;6.378;2023-03-01T05:50:41;-2.00;99.90
53776;DHT22;44276;49.534;6.378;2023-03-01T05:53:15;-2.00;99.90
53776;DHT22;44276;49.534;6.378;2023-03-01T05:55:45;-1.90;99.90
53776;DHT22;44276;49.534;6.378;2023-03-01T05:58:15;-1.90;99.90
53776;DHT22;44276;49.534;6.378;2023-03-01T06:00:47;-2.00;99.90
53776;DHT22;44276;49.534;6.378;2023-03-01T06:03:17;-2.00;99.90
53776;DHT22;44276;49.534;6.378;2023-03-01T06:05:46;-2.00;99.90
53776;DHT22;44276;49.534;6.378;2023-03-01T06:08:15;-2.10;99.90
53776;DHT22;44276;49.534;6.378;2023-03-01T06:10:43;-2.10;99.90
53776;DHT22;44276;49.534;6.378;2023-03-01T06:13:11;-2.20;99.90
53776;DHT22;44276;49.534;6.378;2023-03-01T06:15:40;-2.30;99.90
53776;DHT22;44276;49.534;6.378;2023-03-01T06:18:08;-2.30;99.90
53776;DHT22;44276;49.534;6.378;2023-03-01T06:20:36;-2.40;99.90
53776;DHT22;44276;49.534;6.378;2023-03-01T06:23:05;-2.30;99.90
53776;DHT22;44276;49.534;6.378;2023-03-01T06:25:37;-2.20;99.90
53776;DHT22;44276;49.534;6.378;2023-03-01T06:28:05;-2.10;99.90
53776;DHT22;44276;49.534;6.378;2023-03-01T06:30:33;-2.10;99.90
53776;DHT22;44276;49.534;6.378;2023-03-01T06:33:01;-2.00;99.90
53776;DHT22;44276;49.534;6.378;2023-03-01T06:35:30;-2.00;99.90
53776;DHT22;44276;49.534;6.378;2023-03-01T06:38:00;-1.90;99.90
53776;DHT22;44276;49.534;6.378;2023-03-01T06:40:31;-1.90;99.90
53776;DHT22;44276;49.534;6.378;2023-03-01T06:43:03;-1.90;99.90
53776;DHT22;44276;49.534;6.378;2023-03-01T06:45:33;-1.90;99.90
53776;DHT22;44276;49.534;6.378;2023-03-01T06:48:02;-1.80;99.90
53776;DHT22;44276;49.534;6.378;2023-03-01T06:50:32;-1.70;99.90
53776;DHT22;44276;49.534;6.378;2023-03-01T06:53:01;-1.60;99.90
53776;DHT22;44276;49.534;6.378;2023-03-01T06:55:30;-1.60;99.90
53776;DHT22;44276;49.534;6.378;2023-03-01T06:58:00;-1.50;99.90
53776;DHT22;44276;49.534;6.378;2023-03-01T07:00:31;-1.40;99.90
53776;DHT22;44276;49.534;6.378;2023-03-01T07:03:00;-1.20;99.90
53776;DHT22;44276;49.534;6.378;2023-03-01T07:05:30;-1.20;99.00
53776;DHT22;44276;49.534;6.378;2023-03-01T07:07:58;-1.00;95.00
53776;DHT22;44276;49.534;6.378;2023-03-01T07:10:26;-1.00;94.10
53776;DHT22;44276;49.534;6.378;2023-03-01T07:12:55;-0.90;92.50
53776;DHT22;44276;49.534;6.378;2023-03-01T07:15:24;-0.80;91.40
53776;DHT22;44276;49.534;6.378;2023-03-01T07:17:56;-0.80;90.20
53776;DHT22;44276;49.534;6.378;2023-03-01T07:20:24;-0.70;88.40
53776;DHT22;44276;49.534;6.378;2023-03-01T07:22:53;-0.70;86.00
53776;DHT22;44276;49.534;6.378;2023-03-01T07:25:21;-0.60;85.20
53776;DHT22;44276;49.534;6.378;2023-03-01T07:27:50;-0.50;77.80
53776;DHT22;44276;49.534;6.378;2023-03-01T07:30:19;-0.50;78.40
53776;DHT22;44276;49.534;6.378;2023-03-01T07:32:48;-0.40;78.60
53776;DHT22;44276;49.534;6.378;2023-03-01T07:35:18;-0.40;77.30
53776;DHT22;44276;49.534;6.378;2023-03-01T07:37:46;-0.40;75.90
53776;DHT22;44276;49.534;6.378;2023-03-01T07:40:14;-0.30;74.10
53776;DHT22;44276;49.534;6.378;2023-03-01T07:42:42;-0.20;71.00
53776;DHT22;44276;49.534;6.378;2023-03-01T07:45:10;-0.20;70.00
53776;DHT22;44276;49.534;6.378;2023-03-01T07:47:40;-0.10;68.00
53776;DHT22;44276;49.534;6.378;2023-03-01T07:50:09;-0.10;67.30
53776;DHT22;44276;49.534;6.378;2023-03-01T07:52:39;0.00;64.10
53776;DHT22;44276;49.534;6.378;2023-03-01T07:55:08;0.00;62.10
53776;DHT22;44276;49.534;6.378;2023-03-01T07:57:37;0.00;63.60
53776;DHT22;44276;49.534;6.378;2023-03-01T08:00:07;0.10;61.70
53776;DHT22;44276;49.534;6.378;2023-03-01T08:02:38;0.10;61.00
53776;DHT22;44276;49.534;6.378;2023-03-01T08:05:08;0.20;59.00
53776;DHT22;44276;49.534;6.378;2023-03-01T08:07:38;0.20;58.50
53776;DHT22;44276;49.534;6.378;2023-03-01T08:10:07;0.20;57.50
53776;DHT22;44276;49.534;6.378;2023-03-01T08:12:36;0.30;54.80
53776;DHT22;44276;49.534;6.378;2023-03-01T08:15:05;0.40;53.70
53776;DHT22;44276;49.534;6.378;2023-03-01T08:17:34;0.40;52.80
53776;DHT22;44276;49.534;6.378;2023-03-01T08:20:03;0.50;51.70
53776;DHT22;44276;49.534;6.378;2023-03-01T08:22:33;0.70;52.50
53776;DHT22;44276;49.534;6.378;2023-03-01T08:25:02;0.90;49.10
53776;DHT22;44276;49.534;6.378;2023-03-01T08:27:31;1.20;47.60
53776;DHT22;44276;49.534;6.378;2023-03-01T08:29:59;1.60;43.70
53776;DHT22;44276;49.534;6.378;2023-03-01T08:32:27;1.90;41.50
53776;DHT22;44276;49.534;6.378;2023-03-01T08:34:55;2.10;38.70
53776;DHT22;44276;49.534;6.378;2023-03-01T08:37:24;2.30;37.00
53776;DHT22;44276;49.534;6.378;2023-03-01T08:39:53;2.50;36.40
53776;DHT22;44276;49.534;6.378;2023-03-01T08:42:22;3.00;33.60
53776;DHT22;44276;49.534;6.378;2023-03-01T08:44:50;3.20;32.60
53776;DHT22;44276;49.534;6.378;2023-03-01T08:47:18;3.50;30.50
53776;DHT22;44276;49.534;6.378;2023-03-01T08:49:48;3.70;29.70
53776;DHT22;44276;49.534;6.378;2023-03-01T08:52:17;4.10;29.20
53776;DHT22;44276;49.534;6.378;2023-03-01T08:54:46;4.70;27.50
53776;DHT22;44276;49.534;6.378;2023-03-01T08:57:15;5.10;26.40
53776;DHT22;44276;49.534;6.378;2023-03-01T08:59:44;5.30;26.00
53776;DHT22;44276;49.534;6.378;2023-03-01T09:02:14;5.80;24.80
53776;DHT22;44276;49.534;6.378;2023-03-01T09:04:44;6.60;23.30
53776;DHT22;44276;49.534;6.378;2023-03-01T09:07:12;6.60;23.00
53776;DHT22;44276;49.534;6.378;2023-03-01T09:09:40;6.40;23.20
53776;DHT22;44276;49.534;6.378;2023-03-01T09:12:08;6.50;23.10
53776;DHT22;44276;49.534;6.378;2023-03-01T09:14:36;6.60;22.80
53776;DHT22;44276;49.534;6.378;2023-03-01T09:17:06;6.20;22.60
53776;DHT22;44276;49.534;6.378;2023-03-01T09:19:34;6.30;22.30
53776;DHT22;44276;49.534;6.378;2023-03-01T09:22:03;6.40;22.40
53776;DHT22;44276;49.534;6.378;2023-03-01T09:24:32;6.60;21.80
53776;DHT22;44276;49.534;6.378;2023-03-01T09:27:00;7.00;21.50
53776;DHT22;44276;49.534;6.378;2023-03-01T09:29:29;7.10;20.90
53776;DHT22;44276;49.534;6.378;2023-03-01T09:31:57;7.30;21.50
53776;DHT22;44276;49.534;6.378;2023-03-01T09:34:27;8.00;20.30
53776;DHT22;44276;49.534;6.378;2023-03-01T09:36:57;8.70;18.40
53776;DHT22;44276;49.534;6.378;2023-03-01T09:39:28;8.50;18.40
53776;DHT22;44276;49.534;6.378;2023-03-01T09:41:59;8.50;19.60
53776;DHT22;44276;49.534;6.378;2023-03-01T09:44:35;8.90;18.40
53776;DHT22;44276;49.534;6.378;2023-03-01T09:47:09;9.60;17.30
53776;DHT22;44276;49.534;6.378;2023-03-01T09:49:57;10.10;15.40
53776;DHT22;44276;49.534;6.378;2023-03-01T09:52:34;9.40;16.80
53776;DHT22;44276;49.534;6.378;2023-03-01T09:55:13;9.00;17.20
53776;DHT22;44276;49.534;6.378;2023-03-01T09:57:47;8.60;17.80
53776;DHT22;44276;49.534;6.378;2023-03-01T10:00:31;8.30;18.20
53776;DHT22;44276;49.534;6.378;2023-03-01T10:03:12;8.40;18.20
53776;DHT22;44276;49.534;6.378;2023-03-01T10:05:52;8.40;17.90
53776;DHT22;44276;49.534;6.378;2023-03-01T10:08:35;8.40;18.20
53776;DHT22;44276;49.534;6.378;2023-03-01T10:11:19;8.80;17.90
53776;DHT22;44276;49.534;6.378;2023-03-01T10:13:56;8.90;17.30
53776;DHT22;44276;49.534;6.378;2023-03-01T10:16:38;8.80;17.50
53776;DHT22;44276;49.534;6.378;2023-03-01T10:19:13;8.90;17.60
53776;DHT22;44276;49.534;6.378;2023-03-01T10:21:46;9.00;17.50
53776;DHT22;44276;49.534;6.378;2023-03-01T10:24:18;8.80;17.40
53776;DHT22;44276;49.534;6.378;2023-03-01T10:26:53;9.00;17.40
53776;DHT22;44276;49.534;6.378;2023-03-01T10:29:26;9.10;17.30
53776;DHT22;44276;49.534;6.378;2023-03-01T10:31:59;9.30;16.90
53776;DHT22;44276;49.534;6.378;2023-03-01T10:34:30;9.10;16.60
53776;DHT22;44276;49.534;6.378;2023-03-01T10:37:09;9.00;16.90
53776;DHT22;44276;49.534;6.378;2023-03-01T10:39:55;9.00;17.10
53776;DHT22;44276;49.534;6.378;2023-03-01T10:42:28;9.20;16.70
53776;DHT22;44276;49.534;6.378;2023-03-01T10:45:02;9.20;16.90
53776;DHT22;44276;49.534;6.378;2023-03-01T10:47:43;9.20;16.70
53776;DHT22;44276;49.534;6.378;2023-03-01T10:50:20;10.10;14.60
53776;DHT22;44276;49.534;6.378;2023-03-01T10:52:59;10.00;14.60
53776;DHT22;44276;49.534;6.378;2023-03-01T10:55:33;9.20;16.40
53776;DHT22;44276;49.534;6.378;2023-03-01T10:58:08;9.40;15.90
53776;DHT22;44276;49.534;6.378;2023-03-01T11:00:48;9.40;16.00
53776;DHT22;44276;49.534;6.378;2023-03-01T11:03:22;9.80;15.80
53776;DHT22;44276;49.534;6.378;2023-03-01T11:06:02;9.90;16.30
53776;DHT22;44276;49.534;6.378;2023-03-01T11:08:40;10.10;14.60
53776;DHT22;44276;49.534;6.378;2023-03-01T11:11:24;10.40;14.10
53776;DHT22;44276;49.534;6.378;2023-03-01T11:14:01;10.30;14.50
53776;DHT22;44276;49.534;6.378;2023-03-01T11:16:59;10.50;14.20
53776;DHT22;44276;49.534;6.378;2023-03-01T11:19:29;10.40;14.20
53776;DHT22;44276;49.534;6.378;2023-03-01T11:22:04;10.10;14.50
53776;DHT22;44276;49.534;6.378;2023-03-01T11:24:43;10.00;14.80
53776;DHT22;44276;49.534;6.378;2023-03-01T11:27:31;10.20;14.30
53776;DHT22;44276;49.534;6.378;2023-03-01T11:30:09;10.40;14.40
53776;DHT22;44276;49.534;6.378;2023-03-01T11:32:52;10.00;14.70
53776;DHT22;44276;49.534;6.378;2023-03-01T11:35:27;10.60;14.40
53776;DHT22;44276;49.534;6.378;2023-03-01T11:38:04;11.00;13.50
53776;DHT22;44276;49.534;6.378;2023-03-01T11:40:47;10.60;14.20
53776;DHT22;44276;49.534;6.378;2023-03-01T11:43:28;11.00;13.60
53776;DHT22;44276;49.534;6.378;2023-03-01T11:46:29;10.90;13.70
53776;DHT22;44276;49.534;6.378;2023-03-01T11:49:49;10.40;14.20
53776;DHT22;44276;49.534;6.378;2023-03-01T11:52:38;10.60;14.40
53776;DHT22;44276;49.534;6.378;2023-03-01T11:55:29;10.80;13.80
53776;DHT22;44276;49.534;6.378;2023-03-01T11:58:18;10.80;14.10
53776;DHT22;44276;49.534;6.378;2023-03-01T12:01:03;10.70;14.10
53776;DHT22;44276;49.534;6.378;2023-03-01T12:04:11;10.80;14.10
53776;DHT22;44276;49.534;6.378;2023-03-01T12:06:57;11.00;13.70
53776;DHT22;44276;49.534;6.378;2023-03-01T12:09:38;10.90;13.50
53776;DHT22;44276;49.534;6.378;2023-03-01T12:12:30;10.60;14.50
53776;DHT22;44276;49.534;6.378;2023-03-01T12:15:22;10.60;14.30
53776;DHT22;44276;49.534;6.378;2023-03-01T12:18:41;10.30;14.40
53776;DHT22;44276;49.534;6.378;2023-03-01T12:21:35;9.90;16.20
53776;DHT22;44276;49.534;6.378;2023-03-01T12:24:31;10.20;14.90
53776;DHT22;44276;49.534;6.378;2023-03-01T12:27:25;10.40;14.70
53776;DHT22;44276;49.534;6.378;2023-03-01T12:30:21;10.30;14.60
53776;DHT22;44276;49.534;6.378;2023-03-01T12:33:09;10.00;14.60
53776;DHT22;44276;49.534;6.378;2023-03-01T12:36:15;10.00;15.00
53776;DHT22;44276;49.534;6.378;2023-03-01T12:39:21;9.60;16.30
53776;DHT22;44276;49.534;6.378;2023-03-01T12:42:06;9.80;15.60
53776;DHT22;44276;49.534;6.378;2023-03-01T12:45:02;10.10;14.90
53776;DHT22;44276;49.534;6.378;2023-03-01T12:48:17;10.20;14.20
53776;DHT22;44276;49.534;6.378;2023-03-01T12:50:54;9.80;15.60
53776;DHT22;44276;49.534;6.378;2023-03-01T12:53:29;9.80;16.00
53776;DHT22;44276;49.534;6.378;2023-03-01T12:56:02;10.00;15.10
53776;DHT22;44276;49.534;6.378;2023-03-01T12:58:41;10.10;14.90
53776;DHT22;44276;49.534;6.378;2023-03-01T13:01:31;10.10;14.80
53776;DHT22;44276;49.534;6.378;2023-03-01T13:04:30;10.20;14.90
53776;DHT22;44276;49.534;6.378;2023-03-01T13:07:14;10.00;14.70
53776;DHT22;44276;49.534;6.378;2023-03-01T13:09:56;9.70;16.00
53776;DHT22;44276;49.534;6.378;2023-03-01T13:12:43;9.80;16.50
53776;DHT22;44276;49.534;6.378;2023-03-01T13:15:33;10.00;15.30
53776;DHT22;44276;49.534;6.378;2023-03-01T13:18:04;10.00;15.30
53776;DHT22;44276;49.534;6.378;2023-03-01T13:20:59;9.70;16.30
53776;DHT22;44276;49.534;6.378;2023-03-01T13:23:32;9.60;16.70
53776;DHT22;44276;49.534;6.378;2023-03-01T13:26:08;9.80;16.60
53776;DHT22;44276;49.534;6.378;2023-03-01T13:28:46;9.90;16.80
53776;DHT22;44276;49.534;6.378;2023-03-01T13:34:50;9.90;16.20
53776;DHT22;44276;49.534;6.378;2023-03-01T13:37:28;10.00;15.30
53776;DHT22;44276;49.534;6.378;2023-03-01T13:40:56;9.90;16.70
53776;DHT22;44276;49.534;6.378;2023-03-01T13:43:28;10.00;15.40
53776;DHT22;44276;49.534;6.378;2023-03-01T13:45:59;9.60;16.40
53776;DHT22;44276;49.534;6.378;2023-03-01T13:48:30;9.60;16.70
53776;DHT22;44276;49.534;6.378;2023-03-01T13:51:03;9.70;16.80
53776;DHT22;44276;49.534;6.378;2023-03-01T13:53:39;9.90;16.30
53776;DHT22;44276;49.534;6.378;2023-03-01T13:56:12;10.00;15.40
53776;DHT22;44276;49.534;6.378;2023-03-01T13:58:48;9.80;16.30
53776;DHT22;44276;49.534;6.378;2023-03-01T14:01:24;10.00;15.80
53776;DHT22;44276;49.534;6.378;2023-03-01T14:03:58;9.90;16.40
53776;DHT22;44276;49.534;6.378;2023-03-01T14:06:30;9.80;16.20
53776;DHT22;44276;49.534;6.378;2023-03-01T14:09:16;9.60;16.70
53776;DHT22;44276;49.534;6.378;2023-03-01T14:12:03;9.50;16.70
53776;DHT22;44276;49.534;6.378;2023-03-01T14:14:56;9.60;16.40
53776;DHT22;44276;49.534;6.378;2023-03-01T14:17:42;9.80;16.60
53776;DHT22;44276;49.534;6.378;2023-03-01T14:20:20;9.80;16.80
53776;DHT22;44276;49.534;6.378;2023-03-01T14:22:53;9.70;16.70
53776;DHT22;44276;49.534;6.378;2023-03-01T14:25:26;9.60;16.50
53776;DHT22;44276;49.534;6.378;2023-03-01T14:28:03;9.70;16.70
53776;DHT22;44276;49.534;6.378;2023-03-01T14:30:42;9.60;16.60
53776;DHT22;44276;49.534;6.378;2023-03-01T14:33:24;9.50;16.90
53776;DHT22;44276;49.534;6.378;2023-03-01T14:35:59;9.50;16.90
53776;DHT22;44276;49.534;6.378;2023-03-01T14:38:32;9.70;16.70
53776;DHT22;44276;49.534;6.378;2023-03-01T14:41:06;9.60;16.90
53776;DHT22;44276;49.534;6.378;2023-03-01T14:43:37;9.70;17.20
53776;DHT22;44276;49.534;6.378;2023-03-01T14:46:19;9.50;17.00
53776;DHT22;44276;49.534;6.378;2023-03-01T14:48:50;9.50;17.20
53776;DHT22;44276;49.534;6.378;2023-03-01T14:51:19;9.30;17.70
53776;DHT22;44276;49.534;6.378;2023-03-01T14:53:50;9.40;17.50
53776;DHT22;44276;49.534;6.378;2023-03-01T14:56:19;9.20;17.50
53776;DHT22;44276;49.534;6.378;2023-03-01T14:58:51;9.40;17.40
53776;DHT22;44276;49.534;6.378;2023-03-01T15:01:21;9.40;17.10
53776;DHT22;44276;49.534;6.378;2023-03-01T15:03:50;9.40;17.50
53776;DHT22;44276;49.534;6.378;2023-03-01T15:06:21;9.50;17.60
53776;DHT22;44276;49.534;6.378;2023-03-01T15:08:53;9.50;17.30
53776;DHT22;44276;49.534;6.378;2023-03-01T15:11:27;9.30;17.20
53776;DHT22;44276;49.534;6.378;2023-03-01T15:13:56;9.10;17.90
53776;DHT22;44276;49.534;6.378;2023-03-01T15:16:27;8.90;17.70
53776;DHT22;44276;49.534;6.378;2023-03-01T15:19:00;8.90;17.80
53776;DHT22;44276;49.534;6.378;2023-03-01T15:21:32;8.80;17.90
53776;DHT22;44276;49.534;6.378;2023-03-01T15:24:06;8.60;18.10
53776;DHT22;44276;49.534;6.378;2023-03-01T15:26:51;8.70;18.10
53776;DHT22;44276;49.534;6.378;2023-03-01T15:29:25;8.70;17.90
53776;DHT22;44276;49.534;6.378;2023-03-01T15:31:59;8.70;18.00
53776;DHT22;44276;49.534;6.378;2023-03-01T15:34:31;8.70;18.00
53776;DHT22;44276;49.534;6.378;2023-03-01T15:37:02;8.50;18.40
53776;DHT22;44276;49.534;6.378;2023-03-01T15:39:40;8.70;18.60
53776;DHT22;44276;49.534;6.378;2023-03-01T15:42:12;8.70;18.20
53776;DHT22;44276;49.534;6.378;2023-03-01T15:44:43;8.60;18.30
53776;DHT22;44276;49.534;6.378;2023-03-01T15:47:29;8.50;18.50
53776;DHT22;44276;49.534;6.378;2023-03-01T15:49:59;8.50;18.10
53776;DHT22;44276;49.534;6.378;2023-03-01T15:52:30;8.50;18.20
53776;DHT22;44276;49.534;6.378;2023-03-01T15:55:16;8.40;18.50
53776;DHT22;44276;49.534;6.378;2023-03-01T15:57:46;8.40;18.60
53776;DHT22;44276;49.534;6.378;2023-03-01T16:00:17;8.50;18.60
53776;DHT22;44276;49.534;6.378;2023-03-01T16:02:45;8.50;18.50
53776;DHT22;44276;49.534;6.378;2023-03-01T16:05:19;8.50;18.70
53776;DHT22;44276;49.534;6.378;2023-03-01T16:07:49;8.30;18.40
53776;DHT22;44276;49.534;6.378;2023-03-01T16:10:19;8.30;18.90
53776;DHT22;44276;49.534;6.378;2023-03-01T16:12:48;8.20;18.70
53776;DHT22;44276;49.534;6.378;2023-03-01T16:15:20;8.20;18.60
53776;DHT22;44276;49.534;6.378;2023-03-01T16:17:50;8.20;18.80
53776;DHT22;44276;49.534;6.378;2023-03-01T16:20:19;8.20;19.00
53776;DHT22;44276;49.534;6.378;2023-03-01T16:22:54;8.10;19.00
53776;DHT22;44276;49.534;6.378;2023-03-01T16:25:25;8.10;19.00